Time;durP1;ratioP1;P1;durP2;ratioP2;P2;SDS_P1;SDS_P2;PMS_P1;PMS_P2;Temp;Humidity;BMP_temperature;BMP_pressure;BME280_temperature;BME280_humidity;BME280_pressure;Samples;Min_cycle;Max_cycle;Signal;HPM_P1;HPM_P2
2021/06/27 00:00:32;;;;;;;3.15;2.85;;;19.20;62.80;;;;;;5087661;28;20056;-80
2021/06/27 00:03:20;;;;;;;4.03;2.70;;;19.10;62.80;;;;;;5080089;28;20052;-80
2021/06/27 00:05:48;;;;;;;2.97;2.78;;;19.10;62.80;;;;;;5089120;28;20039;-80
2021/06/27 00:08:17;;;;;;;2.95;2.72;;;19.10;62.90;;;;;;5085142;28;20040;-77
2021/06/27 00:10:46;;;;;;;3.53;3.00;;;19.00;62.90;;;;;;5094761;28;20055;-80
2021/06/27 00:13:15;;;;;;;5.95;2.65;;;19.10;62.90;;;;;;5085580;28;20055;-79
2021/06/27 00:15:49;;;;;;;3.88;2.90;;;19.10;62.90;;;;;;5092023;28;20485;-79
2021/06/27 00:18:21;;;;;;;3.20;2.95;;;19.10;62.90;;;;;;5070652;28;20052;-79
2021/06/27 00:20:52;;;;;;;3.22;2.92;;;19.00;62.80;;;;;;5095219;28;20055;-79
2021/06/27 00:23:22;;;;;;;3.10;2.90;;;19.00;62.80;;;;;;5060341;28;20052;-78
2021/06/27 00:25:51;;;;;;;3.20;2.75;;;19.00;62.90;;;;;;5097052;28;20043;-79
2021/06/27 00:28:20;;;;;;;3.20;2.90;;;19.00;62.80;;;;;;5114760;28;20055;-78
2021/06/27 00:30:51;;;;;;;2.92;2.70;;;19.00;62.90;;;;;;5114419;28;20051;-78
2021/06/27 00:33:22;;;;;;;3.30;3.10;;;19.00;62.90;;;;;;5103231;28;20075;-78
2021/06/27 00:35:50;;;;;;;3.67;2.75;;;19.00;62.90;;;;;;5110081;28;20694;-79
2021/06/27 00:38:19;;;;;;;3.10;2.90;;;19.00;62.90;;;;;;5115480;28;20048;-77
2021/06/27 00:40:49;;;;;;;2.85;2.65;;;18.90;62.80;;;;;;5097051;28;20059;-79
2021/06/27 00:43:18;;;;;;;2.97;2.78;;;18.90;62.90;;;;;;5110672;28;20039;-79
2021/06/27 00:45:48;;;;;;;2.72;2.53;;;18.90;62.90;;;;;;5111959;28;20044;-78
2021/06/27 00:48:18;;;;;;;3.45;2.55;;;18.90;62.90;;;;;;5116343;28;20044;-81
2021/06/27 00:50:49;;;;;;;2.80;2.60;;;18.90;62.90;;;;;;5096993;28;20047;-78
2021/06/27 00:53:18;;;;;;;2.63;2.42;;;18.90;62.90;;;;;;5098629;28;20052;-78
2021/06/27 00:55:56;;;;;;;2.92;2.63;;;18.80;62.90;;;;;;5111747;28;20048;-78
2021/06/27 00:58:35;;;;;;;2.95;2.60;;;18.90;62.90;;;;;;5088730;28;20063;-78
2021/06/27 01:01:11;;;;;;;3.45;2.80;;;18.80;62.90;;;;;;5112881;28;20047;-77
2021/06/27 01:03:39;;;;;;;3.00;2.70;;;18.80;62.90;;;;;;5110233;28;20043;-80
2021/06/27 01:06:07;;;;;;;2.72;2.53;;;18.80;62.90;;;;;;5077919;28;20051;-79
2021/06/27 01:08:35;;;;;;;3.35;3.03;;;18.80;62.90;;;;;;5095773;28;20032;-78
2021/06/27 01:11:07;;;;;;;3.20;2.90;;;18.80;62.90;;;;;;5113824;28;20048;-79
2021/06/27 01:13:35;;;;;;;3.00;2.80;;;18.80;62.90;;;;;;5098004;28;20060;-78
2021/06/27 01:16:04;;;;;;;2.72;2.45;;;18.80;62.90;;;;;;5097546;28;20461;-76
2021/06/27 01:18:32;;;;;;;2.60;2.40;;;18.80;62.90;;;;;;5111222;28;20342;-76
2021/06/27 01:21:05;;;;;;;2.80;2.60;;;18.80;62.90;;;;;;5097878;28;20040;-76
2021/06/27 01:23:34;;;;;;;2.97;2.78;;;18.80;62.90;;;;;;5065581;28;20051;-79
2021/06/27 01:26:02;;;;;;;3.92;2.47;;;18.70;62.90;;;;;;5115024;28;20047;-80
2021/06/27 01:28:30;;;;;;;2.78;2.58;;;18.70;62.90;;;;;;5095706;28;20044;-79
2021/06/27 01:30:58;;;;;;;3.17;2.90;;;18.70;62.90;;;;;;5079693;28;20082;-79
2021/06/27 01:33:27;;;;;;;2.78;2.58;;;18.70;62.90;;;;;;5097513;28;20055;-78
2021/06/27 01:35:54;;;;;;;2.50;2.30;;;18.70;62.90;;;;;;5115259;28;20051;-80
2021/06/27 01:38:22;;;;;;;2.72;2.53;;;18.70;62.90;;;;;;5096455;28;20063;-81
2021/06/27 01:40:51;;;;;;;3.55;2.47;;;18.70;62.90;;;;;;5097351;28;20063;-79
2021/06/27 01:43:23;;;;;;;3.05;2.55;;;18.70;62.90;;;;;;5111961;28;20043;-78
2021/06/27 01:45:59;;;;;;;2.63;2.40;;;18.70;62.90;;;;;;5114285;28;20679;-79
2021/06/27 01:48:30;;;;;;;2.60;2.40;;;18.60;62.90;;;;;;5097111;28;20047;-80
2021/06/27 01:51:00;;;;;;;2.70;2.50;;;18.60;62.90;;;;;;5086127;28;20465;-77
2021/06/27 01:53:31;;;;;;;2.85;2.65;;;18.60;63.00;;;;;;5101444;28;20059;-77
2021/06/27 01:56:07;;;;;;;3.15;2.95;;;18.60;63.00;;;;;;5078895;28;20393;-80
2021/06/27 01:58:42;;;;;;;2.60;2.40;;;18.60;63.00;;;;;;5085036;28;20043;-80
2021/06/27 02:01:25;;;;;;;3.00;2.80;;;18.60;62.90;;;;;;5104082;28;20059;-78
2021/06/27 02:03:54;;;;;;;2.85;2.65;;;18.60;63.00;;;;;;5083942;28;20054;-81
2021/06/27 02:06:25;;;;;;;2.70;2.50;;;18.60;62.90;;;;;;5098192;28;20056;-81
2021/06/27 02:08:55;;;;;;;2.80;2.60;;;18.50;62.90;;;;;;5094772;28;20048;-79
2021/06/27 02:11:25;;;;;;;3.13;2.92;;;18.50;62.90;;;;;;5075502;28;20060;-78
2021/06/27 02:13:57;;;;;;;;;;;18.50;62.90;;;;;;5089382;28;20512;-80
2021/06/27 02:16:27;;;;;;;2.33;2.10;;;18.50;62.90;;;;;;5100756;28;19920;-80
2021/06/27 02:18:56;;;;;;;2.35;2.20;;;18.50;62.90;;;;;;5093269;28;20048;-78
2021/06/27 02:21:31;;;;;;;2.45;2.25;;;18.50;62.90;;;;;;5076621;28;20059;-79
2021/06/27 02:24:02;;;;;;;2.58;2.38;;;18.50;62.90;;;;;;5100007;28;20058;-78
2021/06/27 02:26:30;;;;;;;2.40;2.28;;;18.50;62.90;;;;;;5098691;28;20067;-78
2021/06/27 02:28:59;;;;;;;2.63;2.17;;;18.40;62.90;;;;;;5114447;28;20059;-79
2021/06/27 02:31:28;;;;;;;2.20;2.00;;;18.40;62.90;;;;;;5086835;28;20050;-80
2021/06/27 02:33:57;;;;;;;2.00;1.90;;;18.40;62.90;;;;;;5089461;28;20054;-81
2021/06/27 02:36:26;;;;;;;2.15;2.00;;;18.40;62.80;;;;;;5094872;28;20059;-78
2021/06/27 02:38:54;;;;;;;2.50;2.30;;;18.40;62.80;;;;;;5106069;28;20062;-77
2021/06/27 02:41:23;;;;;;;2.10;2.00;;;18.40;62.90;;;;;;5082274;28;20051;-80
2021/06/27 02:43:51;;;;;;;2.10;2.00;;;18.30;62.90;;;;;;5095019;28;20051;-80
2021/06/27 02:46:20;;;;;;;2.33;2.15;;;18.30;62.90;;;;;;5111398;28;20074;-78
2021/06/27 02:48:48;;;;;;;2.10;1.90;;;18.40;62.90;;;;;;5075207;28;20043;-77
2021/06/27 02:51:16;;;;;;;3.05;2.00;;;18.30;62.90;;;;;;5107001;28;20050;-78
2021/06/27 02:53:44;;;;;;;1.98;1.88;;;18.30;62.90;;;;;;5077838;28;20055;-79
2021/06/27 02:56:12;;;;;;;2.38;2.17;;;18.30;62.80;;;;;;5107458;28;20052;-81
2021/06/27 02:58:48;;;;;;;1.90;1.80;;;18.30;62.90;;;;;;5101195;28;20055;-79
2021/06/27 03:01:17;;;;;;;2.03;1.92;;;18.30;62.90;;;;;;5109031;28;20382;-78
2021/06/27 03:03:50;;;;;;;2.30;2.10;;;18.30;62.90;;;;;;5111546;28;20043;-80
2021/06/27 03:06:25;;;;;;;1.92;1.83;;;18.30;62.90;;;;;;5086208;28;20055;-81
2021/06/27 03:08:53;;;;;;;2.03;1.85;;;18.30;62.90;;;;;;5109897;28;20043;-80
2021/06/27 03:11:21;;;;;;;2.38;2.10;;;18.30;62.90;;;;;;5083627;28;20054;-80
2021/06/27 03:13:50;;;;;;;1.98;1.88;;;18.30;62.90;;;;;;5081005;28;20059;-78
2021/06/27 03:16:18;;;;;;;1.80;1.70;;;18.30;62.90;;;;;;5083528;28;20052;-80
2021/06/27 03:18:46;;;;;;;2.10;2.00;;;18.30;62.90;;;;;;5119227;28;20369;-81
2021/06/27 03:21:13;;;;;;;2.45;1.83;;;18.30;62.90;;;;;;5098064;28;20058;-77
2021/06/27 03:23:41;;;;;;;1.77;1.65;;;18.30;62.90;;;;;;5101960;28;20393;-79
2021/06/27 03:26:09;;;;;;;2.10;1.90;;;18.30;62.90;;;;;;5097732;28;20055;-79
2021/06/27 03:28:38;;;;;;;1.90;1.80;;;18.20;62.90;;;;;;5114297;28;20058;-81
2021/06/27 03:31:07;;;;;;;2.10;1.90;;;18.20;62.90;;;;;;5117364;28;20474;-78
2021/06/27 03:33:35;;;;;;;1.90;1.80;;;18.20;62.90;;;;;;5114529;28;20048;-79
2021/06/27 03:36:03;;;;;;;2.08;1.60;;;18.20;62.90;;;;;;5099989;28;20067;-78
2021/06/27 03:38:47;;;;;;;1.60;1.50;;;18.20;62.90;;;;;;5098230;28;20048;-77
2021/06/27 03:41:21;;;;;;;2.47;1.83;;;18.20;62.90;;;;;;5097647;28;20063;-80
2021/06/27 03:43:51;;;;;;;1.60;1.50;;;18.10;62.90;;;;;;5095257;28;20044;-78
2021/06/27 03:46:19;;;;;;;1.83;1.65;;;18.20;62.90;;;;;;5109932;28;20153;-77
2021/06/27 03:48:47;;;;;;;1.90;1.80;;;18.20;62.90;;;;;;5098405;28;20054;-80
2021/06/27 03:51:15;;;;;;;1.90;1.70;;;18.10;62.90;;;;;;5105844;28;20469;-78
2021/06/27 03:53:44;;;;;;;1.60;1.50;;;18.10;62.90;;;;;;5106735;28;20361;-79
2021/06/27 03:56:12;;;;;;;2.20;1.50;;;18.10;62.90;;;;;;5105742;28;20067;-81
2021/06/27 03:58:40;;;;;;;1.92;1.70;;;18.10;62.90;;;;;;5117460;28;20070;-81
2021/06/27 04:01:08;;;;;;;1.50;1.40;;;18.10;62.90;;;;;;5091703;28;20473;-81
2021/06/27 04:03:36;;;;;;;2.80;1.40;;;18.10;62.90;;;;;;5109684;28;20070;-78
2021/06/27 04:06:04;;;;;;;3.50;1.65;;;18.10;62.90;;;;;;5104492;28;20111;-79
2021/06/27 04:08:33;;;;;;;1.65;1.55;;;18.10;62.90;;;;;;5099747;28;20070;-80
2021/06/27 04:11:00;;;;;;;1.70;1.60;;;18.10;62.90;;;;;;5110760;28;20044;-79
2021/06/27 04:13:31;;;;;;;1.65;1.35;;;18.10;62.90;;;;;;5106871;28;20382;-81
2021/06/27 04:16:00;;;;;;;1.95;1.75;;;18.10;62.90;;;;;;5096227;28;20055;-78
2021/06/27 04:18:31;;;;;;;2.28;1.80;;;18.10;62.90;;;;;;5101579;28;20059;-80
2021/06/27 04:20:59;;;;;;;2.00;1.50;;;18.10;62.90;;;;;;5111947;28;20043;-78
2021/06/27 04:23:29;;;;;;;1.63;1.52;;;18.10;62.90;;;;;;5094947;28;20067;-79
2021/06/27 04:25:58;;;;;;;3.05;1.75;;;18.00;62.90;;;;;;5102847;28;20059;-78
2021/06/27 04:28:26;;;;;;;1.55;1.45;;;18.10;62.90;;;;;;5082602;28;20047;-78
2021/06/27 04:30:54;;;;;;;1.55;1.45;;;18.10;62.90;;;;;;5115179;28;20047;-81
2021/06/27 04:33:22;;;;;;;1.60;1.50;;;18.10;62.90;;;;;;5097830;28;20055;-79
2021/06/27 04:35:51;;;;;;;1.50;1.40;;;18.10;63.00;;;;;;5109511;28;20063;-80
2021/06/27 04:38:19;;;;;;;1.70;1.60;;;18.10;63.00;;;;;;5097689;28;20354;-80
2021/06/27 04:40:47;;;;;;;1.50;1.40;;;18.10;62.90;;;;;;5099203;28;20062;-80
2021/06/27 04:43:16;;;;;;;1.70;1.50;;;18.10;63.00;;;;;;5081214;28;20466;-76
2021/06/27 04:45:45;;;;;;;1.58;1.27;;;18.10;63.00;;;;;;5088370;28;20048;-80
2021/06/27 04:48:13;;;;;;;1.48;1.38;;;18.10;63.00;;;;;;5092499;28;20048;-79
2021/06/27 04:50:44;;;;;;;2.47;1.50;;;18.10;63.00;;;;;;5087633;28;20054;-78
2021/06/27 04:53:13;;;;;;;1.60;1.50;;;18.10;63.00;;;;;;5093571;28;20044;-77
2021/06/27 04:55:42;;;;;;;1.50;1.40;;;18.10;63.00;;;;;;5073471;28;20461;-78
2021/06/27 04:58:11;;;;;;;1.50;1.40;;;18.20;63.00;;;;;;5111102;28;20051;-78
2021/06/27 05:00:41;;;;;;;1.83;1.50;;;18.20;63.00;;;;;;5085469;28;20070;-81
2021/06/27 05:03:09;;;;;;;1.77;1.67;;;18.20;63.00;;;;;;5113048;28;20055;-79
2021/06/27 05:05:38;;;;;;;1.77;1.65;;;18.20;62.90;;;;;;5096494;28;20378;-81
2021/06/27 05:08:06;;;;;;;1.63;1.52;;;18.20;62.90;;;;;;5109160;28;20059;-79
2021/06/27 05:10:34;;;;;;;1.50;1.40;;;18.20;62.90;;;;;;5068009;28;20130;-81
2021/06/27 05:13:03;;;;;;;1.60;1.50;;;18.20;62.90;;;;;;5065286;28;20040;-81
2021/06/27 05:15:31;;;;;;;1.67;1.58;;;18.20;62.90;;;;;;5095814;28;20493;-81
2021/06/27 05:17:59;;;;;;;1.75;1.65;;;18.20;62.90;;;;;;5095178;28;20493;-81
2021/06/27 05:20:28;;;;;;;1.33;1.23;;;18.20;62.90;;;;;;5078368;28;20052;-80
2021/06/27 05:22:56;;;;;;;1.50;1.40;;;18.20;62.90;;;;;;5080218;28;20386;-77
2021/06/27 05:25:24;;;;;;;1.60;1.50;;;18.30;62.90;;;;;;5115402;28;20503;-80
2021/06/27 05:27:52;;;;;;;1.50;1.40;;;18.30;62.90;;;;;;5111746;28;20062;-80
2021/06/27 05:30:20;;;;;;;1.50;1.40;;;18.30;62.90;;;;;;5093722;28;20062;-78
2021/06/27 05:32:48;;;;;;;1.50;1.40;;;18.30;62.80;;;;;;5078228;28;20349;-79
2021/06/27 05:35:16;;;;;;;1.70;1.60;;;18.30;62.80;;;;;;5085330;28;20039;-79
2021/06/27 05:37:45;;;;;;;1.70;1.60;;;18.30;62.70;;;;;;5097108;28;20055;-80
2021/06/27 05:40:13;;;;;;;1.52;1.42;;;18.30;62.70;;;;;;5115693;28;20074;-78
2021/06/27 05:42:41;;;;;;;1.60;1.50;;;18.40;62.60;;;;;;5115887;28;20078;-77
2021/06/27 05:45:10;;;;;;;1.58;1.48;;;18.40;62.50;;;;;;5081902;28;20369;-80
2021/06/27 05:47:38;;;;;;;1.60;1.50;;;18.50;62.40;;;;;;5097476;28;20051;-79
2021/06/27 05:50:07;;;;;;;1.50;1.40;;;18.50;62.40;;;;;;5113264;28;20039;-78
2021/06/27 05:52:36;;;;;;;1.77;1.67;;;18.60;62.30;;;;;;5077558;28;20055;-79
2021/06/27 05:55:06;;;;;;;1.45;1.33;;;18.60;62.20;;;;;;5112284;28;20043;-78
2021/06/27 05:57:34;;;;;;;1.48;1.38;;;18.60;62.10;;;;;;5086967;28;20059;-81
2021/06/27 06:00:04;;;;;;;1.65;1.55;;;18.60;62.00;;;;;;5108272;28;20055;-80
2021/06/27 06:02:37;;;;;;;1.40;1.30;;;18.70;62.00;;;;;;5104918;28;20039;-78
2021/06/27 06:05:05;;;;;;;1.35;1.17;;;18.70;61.90;;;;;;5114023;28;20040;-80
2021/06/27 06:07:33;;;;;;;1.48;1.38;;;18.80;61.70;;;;;;5088765;28;20386;-80
2021/06/27 06:10:01;;;;;;;3.17;1.30;;;18.80;61.60;;;;;;5090435;28;20054;-78
2021/06/27 06:12:29;;;;;;;1.50;1.40;;;18.80;61.50;;;;;;5111489;28;20055;-79
2021/06/27 06:14:57;;;;;;;1.52;1.30;;;18.80;61.40;;;;;;5094806;28;20051;-78
2021/06/27 06:17:25;;;;;;;1.48;1.38;;;18.90;61.30;;;;;;5112035;28;20397;-81
2021/06/27 06:19:54;;;;;;;1.50;1.40;;;18.90;61.30;;;;;;5102770;28;20047;-80
2021/06/27 06:22:22;;;;;;;1.40;1.30;;;19.00;61.20;;;;;;5083589;28;20067;-79
2021/06/27 06:24:55;;;;;;;1.40;1.30;;;19.00;61.10;;;;;;5102562;28;20052;-79
2021/06/27 06:27:24;;;;;;;1.95;1.40;;;19.00;61.00;;;;;;5108569;28;20052;-79
2021/06/27 06:29:52;;;;;;;1.65;1.55;;;19.00;61.00;;;;;;5099689;28;20043;-80
2021/06/27 06:32:20;;;;;;;1.33;1.23;;;19.00;61.00;;;;;;5102193;28;20059;-79
2021/06/27 06:34:49;;;;;;;1.55;1.45;;;19.00;60.90;;;;;;5106846;28;20055;-80
2021/06/27 06:37:19;;;;;;;1.40;1.30;;;19.00;60.90;;;;;;5059789;28;20052;-78
2021/06/27 06:39:47;;;;;;;1.35;1.25;;;19.00;60.90;;;;;;5097589;28;20059;-77
2021/06/27 06:42:15;;;;;;;1.50;1.40;;;19.10;60.90;;;;;;5113547;28;20496;-79
2021/06/27 06:44:43;;;;;;;1.15;1.13;;;19.00;60.90;;;;;;5103599;28;20478;-77
2021/06/27 06:47:11;;;;;;;1.38;1.27;;;19.00;60.80;;;;;;5106243;28;20059;-77
2021/06/27 06:49:39;;;;;;;1.30;1.20;;;19.00;60.80;;;;;;5108075;28;20051;-78
2021/06/27 06:52:07;;;;;;;1.50;1.40;;;19.10;60.80;;;;;;5101140;28;20051;-78
2021/06/27 06:54:35;;;;;;;1.10;1.10;;;19.10;60.80;;;;;;5101499;28;20509;-77
2021/06/27 06:57:04;;;;;;;1.40;1.30;;;19.10;60.80;;;;;;5089209;28;20044;-79
2021/06/27 06:59:32;;;;;;;1.33;1.23;;;19.10;60.70;;;;;;5106917;28;20055;-80
2021/06/27 07:02:00;;;;;;;1.50;1.40;;;19.10;60.70;;;;;;5076612;28;21531;-80
2021/06/27 07:04:29;;;;;;;1.27;1.17;;;19.10;60.70;;;;;;5094452;28;20055;-80
2021/06/27 07:06:56;;;;;;;2.33;1.40;;;19.10;60.70;;;;;;5111652;28;20055;-78
2021/06/27 07:09:24;;;;;;;1.58;1.48;;;19.10;60.70;;;;;;5109867;28;20043;-79
2021/06/27 07:11:54;;;;;;;1.40;1.30;;;19.10;60.70;;;;;;5096487;28;20508;-77
2021/06/27 07:14:22;;;;;;;1.70;1.50;;;19.10;60.60;;;;;;5083301;28;20048;-78
2021/06/27 07:16:50;;;;;;;1.50;1.40;;;19.10;60.60;;;;;;5064918;28;20043;-80
2021/06/27 07:19:18;;;;;;;2.75;1.50;;;19.20;60.60;;;;;;5107258;28;20055;-77
2021/06/27 07:21:46;;;;;;;1.73;1.60;;;19.20;60.60;;;;;;5104875;28;20052;-77
2021/06/27 07:24:14;;;;;;;2.33;1.60;;;19.20;60.50;;;;;;5089780;28;20048;-79
2021/06/27 07:26:43;;;;;;;1.50;1.40;;;19.30;60.50;;;;;;5088901;28;20062;-77
2021/06/27 07:29:11;;;;;;;1.73;1.63;;;19.30;60.40;;;;;;5110523;28;20466;-79
2021/06/27 07:31:39;;;;;;;1.52;1.42;;;19.30;60.40;;;;;;5071756;28;20364;-77
2021/06/27 07:34:08;;;;;;;1.83;1.73;;;19.30;60.40;;;;;;5105072;28;20055;-78
2021/06/27 07:36:36;;;;;;;1.42;1.33;;;19.30;60.30;;;;;;5099355;28;20071;-78
2021/06/27 07:39:04;;;;;;;2.17;1.58;;;19.40;60.20;;;;;;5095121;28;20062;-79
2021/06/27 07:41:33;;;;;;;1.67;1.58;;;19.40;60.20;;;;;;5110342;28;20048;-77
2021/06/27 07:44:01;;;;;;;1.80;1.70;;;19.40;60.10;;;;;;5108376;28;20484;-77
2021/06/27 07:46:30;;;;;;;2.60;1.50;;;19.40;60.10;;;;;;5098942;28;20044;-79
2021/06/27 07:48:58;;;;;;;1.58;1.48;;;19.40;60.10;;;;;;5081434;28;20118;-77
2021/06/27 07:51:27;;;;;;;2.08;1.73;;;19.50;60.10;;;;;;5098676;28;20047;-78
2021/06/27 07:53:55;;;;;;;1.88;1.77;;;19.50;60.00;;;;;;5116153;28;20425;-77
2021/06/27 07:56:23;;;;;;;1.95;1.58;;;19.60;59.90;;;;;;5110570;28;20052;-77
2021/06/27 07:58:55;;;;;;;1.77;1.67;;;19.60;59.90;;;;;;5100318;28;20055;-77
2021/06/27 08:01:24;;;;;;;1.73;1.63;;;19.60;59.90;;;;;;5116491;28;20055;-76
2021/06/27 08:03:52;;;;;;;1.80;1.70;;;19.60;59.80;;;;;;5078502;28;20048;-79
2021/06/27 08:06:21;;;;;;;1.50;1.40;;;19.60;59.80;;;;;;5110886;28;20055;-77
2021/06/27 08:08:50;;;;;;;1.50;1.40;;;19.60;59.80;;;;;;5116333;28;20035;-80
2021/06/27 08:11:18;;;;;;;1.70;1.60;;;19.70;59.80;;;;;;5098183;28;20046;-78
2021/06/27 08:13:46;;;;;;;2.20;2.00;;;19.70;59.80;;;;;;5116832;28;20056;-77
2021/06/27 08:16:16;;;;;;;1.95;1.70;;;19.70;59.80;;;;;;5116230;28;20060;-79
2021/06/27 08:18:49;;;;;;;1.83;1.73;;;19.70;59.80;;;;;;5069996;28;20059;-80
2021/06/27 08:21:19;;;;;;;2.45;1.60;;;19.70;59.80;;;;;;5111218;28;20044;-79
2021/06/27 08:23:47;;;;;;;1.95;1.85;;;19.70;59.80;;;;;;5107223;28;20066;-79
2021/06/27 08:26:15;;;;;;;1.70;1.60;;;19.60;59.70;;;;;;5098664;28;20043;-80
2021/06/27 08:28:53;;;;;;;1.90;1.70;;;19.70;59.80;;;;;;5107395;28;20055;-77
2021/06/27 08:31:22;;;;;;;2.15;2.00;;;19.70;59.70;;;;;;5111923;28;20123;-80
2021/06/27 08:33:50;;;;;;;2.03;1.90;;;19.70;59.70;;;;;;5107666;28;20362;-76
2021/06/27 08:36:18;;;;;;;2.10;1.90;;;19.70;59.70;;;;;;5081115;28;20055;-77
2021/06/27 08:38:46;;;;;;;2.28;2.08;;;19.80;59.70;;;;;;5074387;28;20052;-78
2021/06/27 08:41:18;;;;;;;2.13;1.92;;;19.70;59.70;;;;;;5112687;28;20051;-77
2021/06/27 08:43:46;;;;;;;2.10;2.00;;;19.80;59.70;;;;;;5110475;28;20052;-78
2021/06/27 08:46:14;;;;;;;1.77;1.67;;;19.70;59.70;;;;;;5111383;28;20465;-80
2021/06/27 08:48:45;;;;;;;2.30;2.10;;;19.70;59.70;;;;;;5113960;28;20307;-79
2021/06/27 08:51:13;;;;;;;3.05;2.55;;;19.80;59.80;;;;;;5070658;28;20047;-78
2021/06/27 08:53:42;;;;;;;2.40;2.20;;;19.80;59.90;;;;;;5087721;28;20063;-79
2021/06/27 08:56:12;;;;;;;2.20;2.00;;;19.80;60.10;;;;;;5103653;28;20055;-76
2021/06/27 08:58:42;;;;;;;3.03;2.30;;;19.80;60.20;;;;;;5110812;28;20051;-78
2021/06/27 09:01:19;;;;;;;2.65;2.45;;;19.80;60.30;;;;;;5075727;28;20066;-76
2021/06/27 09:03:49;;;;;;;2.63;2.42;;;19.90;60.40;;;;;;5092038;28;20738;-80
2021/06/27 09:06:31;;;;;;;2.50;2.17;;;20.00;60.50;;;;;;5107757;28;20040;-80
2021/06/27 09:09:19;;;;;;;2.10;1.90;;;20.10;60.30;;;;;;5089550;28;20058;-81
2021/06/27 09:12:06;;;;;;;3.17;2.08;;;20.30;60.00;;;;;;5092147;28;20043;-80
2021/06/27 09:14:38;;;;;;;2.95;1.98;;;20.30;59.80;;;;;;5092748;28;20048;-77
2021/06/27 09:17:27;;;;;;;9.13;2.23;;;20.40;59.70;;;;;;5093447;28;20050;-80
2021/06/27 09:20:03;;;;;;;2.38;1.90;;;20.40;59.70;;;;;;5111629;28;20066;-80
2021/06/27 09:22:37;;;;;;;3.67;2.00;;;20.50;59.70;;;;;;5102119;28;20052;-78
2021/06/27 09:25:30;;;;;;;2.53;1.90;;;20.50;59.70;;;;;;5102454;28;20040;-79
2021/06/27 09:28:13;;;;;;;4.45;2.33;;;20.50;59.70;;;;;;5096512;28;20054;-78
2021/06/27 09:30:50;;;;;;;5.88;2.33;;;20.50;59.80;;;;;;5108240;28;20125;-79
2021/06/27 09:33:21;;;;;;;4.63;1.90;;;20.50;59.70;;;;;;5109924;28;20043;-79
2021/06/27 09:35:55;;;;;;;2.55;1.80;;;20.50;59.70;;;;;;5063575;28;20052;-79
2021/06/27 09:38:30;;;;;;;2.22;2.03;;;20.60;59.70;;;;;;5084606;28;20044;-76
2021/06/27 09:41:07;;;;;;;2.72;2.50;;;20.60;59.70;;;;;;5109007;28;20055;-76
2021/06/27 09:43:36;;;;;;;2.50;2.30;;;20.60;59.60;;;;;;5095044;28;20044;-77
2021/06/27 09:46:14;;;;;;;2.60;2.40;;;20.70;59.50;;;;;;5090640;28;20051;-77
2021/06/27 09:48:56;;;;;;;2.60;2.30;;;20.80;59.40;;;;;;5112836;28;20047;-78
2021/06/27 09:51:27;;;;;;;2.72;2.15;;;20.80;59.30;;;;;;5111314;28;20047;-76
2021/06/27 09:53:56;;;;;;;7.15;2.40;;;20.80;59.30;;;;;;5096509;28;20453;-75
2021/06/27 09:56:24;;;;;;;2.90;2.40;;;20.80;59.20;;;;;;5111656;28;20489;-77
2021/06/27 09:59:09;;;;;;;3.03;2.55;;;20.80;59.20;;;;;;5092149;28;20047;-81
2021/06/27 10:01:39;;;;;;;5.45;2.45;;;20.70;59.30;;;;;;5111298;28;20051;-82
2021/06/27 10:04:12;;;;;;;2.42;2.22;;;20.70;59.30;;;;;;5106740;28;20497;-79
2021/06/27 10:06:59;;;;;;;;;;;20.70;59.40;;;;;;5108531;28;20044;-82
2021/06/27 10:09:32;;;;;;;2.83;2.42;;;20.70;59.50;;;;;;5105364;28;19927;-81
2021/06/27 10:12:07;;;;;;;3.63;2.53;;;20.70;59.50;;;;;;5106512;28;20082;-76
2021/06/27 10:14:53;;;;;;;4.97;2.38;;;20.70;59.60;;;;;;5095903;28;20044;-74
2021/06/27 10:17:23;;;;;;;5.55;2.65;;;20.70;59.70;;;;;;5085273;28;20070;-74
2021/06/27 10:19:53;;;;;;;4.50;2.97;;;20.70;59.80;;;;;;5108643;28;20063;-73
2021/06/27 10:22:25;;;;;;;8.23;2.80;;;20.70;59.80;;;;;;5095210;28;20860;-75
2021/06/27 10:24:54;;;;;;;4.20;2.90;;;20.80;59.70;;;;;;5109898;28;20066;-74
2021/06/27 10:27:28;;;;;;;6.45;2.60;;;20.80;59.60;;;;;;5088518;28;20052;-75
2021/06/27 10:29:57;;;;;;;;;;;20.90;59.60;;;;;;5090350;28;20096;-73
2021/06/27 10:32:25;;;;;;;4.60;2.90;;;20.90;59.60;;;;;;5113121;28;19934;-74
2021/06/27 10:34:56;;;;;;;10.02;3.05;;;20.90;59.50;;;;;;5091582;28;20067;-74
2021/06/27 10:37:33;;;;;;;8.45;2.72;;;21.00;59.40;;;;;;5112116;28;20062;-75
2021/06/27 10:40:11;;;;;;;5.82;2.90;;;21.10;59.40;;;;;;5090961;28;20047;-75
2021/06/27 10:42:56;;;;;;;7.22;3.17;;;21.10;59.40;;;;;;5109596;28;20044;-74
2021/06/27 10:45:26;;;;;;;6.18;2.80;;;21.10;59.50;;;;;;5075728;28;20051;-74
2021/06/27 10:47:56;;;;;;;5.47;2.83;;;21.10;59.50;;;;;;5112890;28;20054;-75
2021/06/27 10:50:51;;;;;;;7.97;3.28;;;21.00;59.60;;;;;;5107626;28;20047;-75
2021/06/27 10:53:19;;;;;;;4.50;3.00;;;20.90;59.80;;;;;;5091267;28;20050;-76
2021/06/27 10:55:48;;;;;;;4.57;3.40;;;20.90;59.90;;;;;;5113478;28;20059;-75
2021/06/27 10:58:35;;;;;;;5.50;3.00;;;20.90;60.00;;;;;;5094589;28;20048;-76
2021/06/27 11:01:10;;;;;;;6.85;3.33;;;20.80;60.10;;;;;;5090684;28;20048;-75
2021/06/27 11:03:43;;;;;;;4.70;3.03;;;20.80;60.20;;;;;;5094526;28;20059;-75
2021/06/27 11:06:17;;;;;;;7.15;3.50;;;20.80;60.30;;;;;;5108797;28;20056;-75
2021/06/27 11:08:55;;;;;;;5.50;3.17;;;20.70;60.40;;;;;;5091013;28;20040;-75
2021/06/27 11:11:25;;;;;;;5.55;3.75;;;20.70;60.50;;;;;;5112446;28;20051;-74
2021/06/27 11:14:14;;;;;;;6.85;3.85;;;20.70;60.60;;;;;;5107995;28;20384;-74
2021/06/27 11:16:59;;;;;;;5.85;3.78;;;20.70;60.70;;;;;;5093515;28;20047;-73
2021/06/27 11:19:32;;;;;;;6.32;3.67;;;20.70;60.70;;;;;;5112086;28;20050;-74
2021/06/27 11:22:46;;;;;;;6.15;4.25;;;20.60;60.80;;;;;;5097107;28;20035;-73
2021/06/27 11:25:38;;;;;;;6.00;4.00;;;20.70;60.90;;;;;;5013746;28;20042;-74
2021/06/27 11:28:22;;;;;;;6.80;3.78;;;20.60;60.90;;;;;;5116354;28;20044;-74
2021/06/27 11:31:21;;;;;;;7.97;3.80;;;20.60;60.90;;;;;;5097188;28;20062;-73
2021/06/27 11:34:20;;;;;;;5.28;3.90;;;20.60;61.00;;;;;;5102306;28;20386;-74
2021/06/27 11:36:48;;;;;;;5.90;3.92;;;20.60;61.10;;;;;;5110344;28;20066;-74
2021/06/27 11:39:41;;;;;;;6.07;3.50;;;20.60;61.00;;;;;;5072101;28;20374;-74
2021/06/27 11:42:30;;;;;;;8.20;3.90;;;20.70;61.00;;;;;;5084290;28;20050;-73
2021/06/27 11:45:07;;;;;;;5.30;3.90;;;20.70;61.00;;;;;;5076992;28;20040;-76
2021/06/27 11:47:36;;;;;;;7.90;4.38;;;20.70;60.90;;;;;;5088493;28;20117;-74
2021/06/27 11:50:19;;;;;;;6.03;3.70;;;20.70;60.90;;;;;;5097286;28;20065;-74
2021/06/27 11:53:01;;;;;;;7.85;3.92;;;20.70;61.00;;;;;;5097971;28;20114;-73
2021/06/27 11:55:33;;;;;;;5.47;3.85;;;20.80;60.90;;;;;;5112589;28;20469;-74
2021/06/27 11:58:03;;;;;;;6.95;4.25;;;20.70;61.00;;;;;;5109444;28;20066;-74
2021/06/27 12:01:04;;;;;;;7.75;4.18;;;20.70;61.00;;;;;;5102784;28;20056;-75
2021/06/27 12:03:31;;;;;;;9.57;5.72;;;20.70;61.00;;;;;;5080490;28;20409;-74
2021/06/27 12:06:03;;;;;;;8.30;6.25;;;20.70;60.90;;;;;;5112503;28;20052;-74
2021/06/27 12:08:32;;;;;;;8.63;6.57;;;20.80;60.80;;;;;;5115501;28;20055;-74
2021/06/27 12:11:01;;;;;;;9.20;6.60;;;20.90;60.60;;;;;;5093882;28;20055;-74
2021/06/27 12:13:30;;;;;;;8.30;6.53;;;20.90;60.40;;;;;;5113447;28;20058;-75
2021/06/27 12:15:59;;;;;;;7.40;6.60;;;21.00;60.20;;;;;;5101839;28;20051;-74
2021/06/27 12:18:30;;;;;;;7.72;6.30;;;21.10;60.00;;;;;;5113667;28;20051;-74
2021/06/27 12:21:12;;;;;;;8.32;6.13;;;21.10;59.90;;;;;;5112393;28;20062;-74
2021/06/27 12:23:43;;;;;;;7.57;5.95;;;21.20;59.70;;;;;;5105850;28;20058;-74
2021/06/27 12:26:20;;;;;;;7.38;6.13;;;21.30;59.60;;;;;;5100822;28;20051;-74
2021/06/27 12:28:53;;;;;;;8.25;7.45;;;21.30;59.50;;;;;;5096268;28;20051;-74
2021/06/27 12:31:27;;;;;;;12.23;7.55;;;21.30;59.20;;;;;;5111882;28;20059;-75
2021/06/27 12:34:06;;;;;;;8.02;6.85;;;21.30;59.00;;;;;;5078329;28;20058;-75
2021/06/27 12:36:46;;;;;;;7.60;6.88;;;21.30;59.00;;;;;;5109725;28;20469;-75
2021/06/27 12:39:17;;;;;;;6.88;5.85;;;21.30;59.10;;;;;;5108764;28;20059;-76
2021/06/27 12:41:45;;;;;;;7.45;6.15;;;21.30;59.10;;;;;;5114984;28;20050;-75
2021/06/27 12:44:15;;;;;;;8.15;6.18;;;21.30;59.10;;;;;;5077980;28;20039;-75
2021/06/27 12:46:50;;;;;;;6.47;5.68;;;21.30;59.00;;;;;;5112913;28;20066;-75
2021/06/27 12:49:29;;;;;;;6.80;5.88;;;21.30;59.00;;;;;;5088734;28;20039;-76
2021/06/27 12:52:01;;;;;;;7.13;6.00;;;21.40;58.90;;;;;;5085956;28;20066;-75
2021/06/27 12:54:48;;;;;;;6.10;5.50;;;21.50;58.80;;;;;;5102620;28;20055;-78
2021/06/27 12:57:21;;;;;;;7.20;5.70;;;21.50;58.80;;;;;;5107762;28;20492;-77
2021/06/27 12:59:56;;;;;;;9.40;5.43;;;21.50;58.70;;;;;;5092530;28;20052;-77
2021/06/27 13:02:34;;;;;;;6.38;5.55;;;21.60;58.70;;;;;;5105288;28;20043;-76
2021/06/27 13:05:07;;;;;;;7.75;5.30;;;21.60;58.60;;;;;;5069975;28;20048;-77
2021/06/27 13:07:37;;;;;;;8.20;5.35;;;21.70;58.60;;;;;;5065815;28;20048;-79
2021/06/27 13:10:17;;;;;;;7.22;5.22;;;21.80;58.40;;;;;;5109507;28;20051;-77